createdAt,value
2023-03-05T00:00:40.710Z,0
2023-03-05T00:01:40.503Z,0
2023-03-05T00:02:42.085Z,0
2023-03-05T00:03:41.993Z,0
2023-03-05T00:04:42.701Z,0
2023-03-05T00:05:43.911Z,0
2023-03-05T00:06:43.824Z,0
2023-03-05T00:07:45.083Z,0
2023-03-05T00:08:45.685Z,0
2023-03-05T00:09:47.101Z,0
2023-03-05T00:10:46.430Z,0
2023-03-05T00:11:47.385Z,0
2023-03-05T00:12:47.285Z,0
2023-03-05T00:13:48.796Z,0
2023-03-05T00:14:49.004Z,0
2023-03-05T00:15:50.433Z,0
2023-03-05T00:16:50.412Z,0
2023-03-05T00:17:51.627Z,0
2023-03-05T00:18:51.697Z,0
2023-03-05T00:19:53.913Z,0
2023-03-05T00:20:54.070Z,0
2023-03-05T00:21:54.741Z,0
2023-03-05T00:22:55.989Z,0
2023-03-05T00:23:57.017Z,0
2023-03-05T00:24:57.236Z,0
2023-03-05T00:25:58.181Z,0
2023-03-05T00:26:58.428Z,0
2023-03-05T00:27:58.654Z,0
2023-03-05T00:28:59.072Z,0
2023-03-05T00:30:00.322Z,0
2023-03-05T00:31:00.618Z,0
2023-03-05T00:32:00.626Z,0
2023-03-05T00:33:00.876Z,0
2023-03-05T00:34:01.809Z,0
2023-03-05T00:35:01.489Z,0
2023-03-05T00:36:03.163Z,0
2023-03-05T00:37:03.034Z,0
2023-03-05T00:38:03.989Z,0
2023-03-05T00:39:04.560Z,0
2023-03-05T00:40:04.902Z,0
2023-03-05T00:41:04.676Z,0
2023-03-05T00:42:05.602Z,0
2023-03-05T00:43:05.842Z,0
2023-03-05T00:44:05.528Z,0
2023-03-05T00:45:06.758Z,0
2023-03-05T00:46:06.803Z,0
2023-03-05T00:47:07.873Z,0
2023-03-05T00:48:09.089Z,0
2023-03-05T00:49:08.458Z,0
2023-03-05T00:50:09.677Z,0
2023-03-05T00:51:10.012Z,0
2023-03-05T00:52:10.940Z,0
2023-03-05T00:53:10.585Z,0
2023-03-05T00:54:12.195Z,0
2023-03-05T00:55:12.394Z,0
2023-03-05T00:56:12.331Z,0
2023-03-05T00:57:13.257Z,0
2023-03-05T00:58:14.488Z,0
2023-03-05T00:59:14.501Z,0
2023-03-05T01:00:15.439Z,0
2023-03-05T01:01:16.345Z,0
2023-03-05T01:02:17.110Z,0
2023-03-05T01:03:18.050Z,0
2023-03-05T01:04:18.292Z,0
2023-03-05T01:05:19.243Z,0
2023-03-05T01:06:19.801Z,0
2023-03-05T01:07:19.717Z,0
2023-03-05T01:08:20.007Z,0
2023-03-05T01:09:21.298Z,0
2023-03-05T01:10:21.498Z,0
2023-03-05T01:11:22.569Z,0
2023-03-05T01:12:23.522Z,0
2023-03-05T01:13:23.456Z,0
2023-03-05T01:14:24.976Z,0
2023-03-05T01:15:25.481Z,0
2023-03-05T01:16:26.508Z,0
2023-03-05T01:17:26.449Z,0
2023-03-05T01:18:26.102Z,0
2023-03-05T01:19:26.845Z,0
2023-03-05T01:20:27.758Z,0
2023-03-05T01:21:28.807Z,0
2023-03-05T01:22:29.300Z,0
2023-03-05T01:23:29.338Z,0
2023-03-05T01:24:30.968Z,0
2023-03-05T01:25:31.472Z,0
2023-03-05T01:26:31.395Z,0
2023-03-05T01:27:31.296Z,0
2023-03-05T01:28:32.501Z,0
2023-03-05T01:29:33.753Z,0
2023-03-05T01:30:33.389Z,0
2023-03-05T01:31:35.527Z,0
2023-03-05T01:32:35.887Z,0
2023-03-05T01:33:36.178Z,0
2023-03-05T01:34:35.512Z,0
2023-03-05T01:35:37.685Z,0
2023-03-05T01:36:37.648Z,0
2023-03-05T01:37:38.023Z,0
2023-03-05T01:38:39.137Z,0
2023-03-05T01:39:39.719Z,0
2023-03-05T01:40:39.830Z,0
2023-03-05T01:41:40.851Z,0
2023-03-05T01:42:40.919Z,0
2023-03-05T01:43:42.784Z,0
2023-03-05T01:44:43.724Z,0
2023-03-05T01:45:44.451Z,0
2023-03-05T01:46:44.151Z,0
2023-03-05T01:47:45.360Z,0
2023-03-05T01:48:46.291Z,0
2023-03-05T01:49:47.001Z,0
2023-03-05T01:50:48.240Z,0
2023-03-05T01:51:48.581Z,0
2023-03-05T01:52:49.525Z,0
2023-03-05T01:53:50.456Z,0
2023-03-05T01:54:51.763Z,0
2023-03-05T01:55:51.392Z,0
2023-03-05T01:56:52.331Z,0
2023-03-05T01:57:52.539Z,0
2023-03-05T01:58:52.180Z,0
2023-03-05T01:59:53.105Z,0
2023-03-05T02:00:54.581Z,0
2023-03-05T02:01:55.131Z,0
2023-03-05T02:02:55.072Z,0
2023-03-05T02:03:54.897Z,0
2023-03-05T02:04:55.860Z,0
2023-03-05T02:05:56.480Z,0
2023-03-05T02:06:57.981Z,0
2023-03-05T02:07:58.183Z,0
2023-03-05T02:08:59.414Z,0
2023-03-05T02:09:59.730Z,0
2023-03-05T02:10:59.938Z,0
2023-03-05T02:12:00.284Z,0
2023-03-05T02:13:00.224Z,0
2023-03-05T02:14:00.891Z,0
2023-03-05T02:15:01.514Z,0
2023-03-05T02:16:01.857Z,0
2023-03-05T02:17:02.832Z,0
2023-03-05T02:18:03.819Z,0
2023-03-05T02:19:04.766Z,0
2023-03-05T02:20:05.696Z,0
2023-03-05T02:21:05.929Z,0
2023-03-05T02:22:06.409Z,0
2023-03-05T02:23:07.318Z,0
2023-03-05T02:24:08.556Z,0
2023-03-05T02:25:09.591Z,0
2023-03-05T02:26:09.539Z,0
2023-03-05T02:27:10.737Z,0
2023-03-05T02:28:10.661Z,0
2023-03-05T02:29:11.882Z,0
2023-03-05T02:30:11.817Z,0
2023-03-05T02:31:13.032Z,0
2023-03-05T02:32:14.045Z,0
2023-03-05T02:33:14.309Z,0
2023-03-05T02:34:14.532Z,0
2023-03-05T02:35:15.167Z,0
2023-03-05T02:36:16.777Z,0
2023-03-05T02:37:16.431Z,0
2023-03-05T02:38:17.364Z,0
2023-03-05T02:39:18.300Z,0
2023-03-05T02:40:19.457Z,0
2023-03-05T02:41:19.375Z,0
2023-03-05T02:42:20.120Z,0
2023-03-05T02:43:21.348Z,0
2023-03-05T02:44:21.603Z,0
2023-03-05T02:45:21.517Z,0
2023-03-05T02:46:23.017Z,0
2023-03-05T02:47:23.289Z,0
2023-03-05T02:48:22.657Z,0
2023-03-05T02:49:24.577Z,0
2023-03-05T02:50:25.117Z,0
2023-03-05T02:51:24.485Z,0
2023-03-05T02:52:25.526Z,0
2023-03-05T02:53:26.433Z,0
2023-03-05T02:54:27.200Z,0
2023-03-05T02:55:28.520Z,0
2023-03-05T02:56:29.033Z,0
2023-03-05T02:57:28.670Z,0
2023-03-05T02:58:29.872Z,0
2023-03-05T02:59:30.201Z,0
2023-03-05T03:00:30.190Z,0
2023-03-05T03:01:31.723Z,0
2023-03-05T03:02:31.813Z,0
2023-03-05T03:03:32.404Z,0
2023-03-05T03:04:32.666Z,0
2023-03-05T03:05:32.897Z,0
2023-03-05T03:06:32.824Z,0
2023-03-05T03:07:34.012Z,0
2023-03-05T03:08:34.505Z,0
2023-03-05T03:09:35.084Z,0
2023-03-05T03:10:35.663Z,0
2023-03-05T03:11:35.879Z,0
2023-03-05T03:12:35.942Z,0
2023-03-05T03:13:36.889Z,0
2023-03-05T03:14:37.531Z,0
2023-03-05T03:15:38.237Z,0
2023-03-05T03:16:39.645Z,0
2023-03-05T03:17:39.310Z,0
2023-03-05T03:18:40.805Z,0
2023-03-05T03:19:40.466Z,0
2023-03-05T03:20:41.381Z,0
2023-03-05T03:21:42.611Z,0
2023-03-05T03:22:43.046Z,0
2023-03-05T03:23:44.266Z,0
2023-03-05T03:24:45.212Z,0
2023-03-05T03:25:46.276Z,0
2023-03-05T03:26:46.199Z,0
2023-03-05T03:27:47.120Z,0
2023-03-05T03:28:47.615Z,0
2023-03-05T03:29:48.146Z,0
2023-03-05T03:30:48.203Z,0
2023-03-05T03:31:49.706Z,0
2023-03-05T03:32:50.516Z,0
2023-03-05T03:33:50.468Z,0
2023-03-05T03:34:51.421Z,0
2023-03-05T03:35:52.269Z,0
2023-03-05T03:36:52.514Z,0
2023-03-05T03:37:52.720Z,0
2023-03-05T03:38:53.224Z,0
2023-03-05T03:39:53.494Z,0
2023-03-05T03:40:54.078Z,0
2023-03-05T03:41:53.969Z,0
2023-03-05T03:42:54.833Z,0
2023-03-05T03:43:56.383Z,0
2023-03-05T03:44:56.346Z,0
2023-03-05T03:45:57.763Z,0
2023-03-05T03:46:57.743Z,0
2023-03-05T03:47:57.952Z,0
2023-03-05T03:48:57.909Z,0
2023-03-05T03:49:59.077Z,0
2023-03-05T03:50:59.640Z,0
2023-03-05T03:51:59.580Z,0
2023-03-05T03:53:00.358Z,0
2023-03-05T03:54:01.578Z,0
2023-03-05T03:55:01.462Z,0
2023-03-05T03:56:02.129Z,0
2023-03-05T03:57:02.682Z,0
2023-03-05T03:58:03.247Z,0
2023-03-05T03:59:03.474Z,0
2023-03-05T04:00:03.680Z,0
2023-03-05T04:01:03.629Z,0
2023-03-05T04:02:04.833Z,0
2023-03-05T04:03:05.456Z,0
2023-03-05T04:04:06.850Z,0
2023-03-05T04:05:05.770Z,0
2023-03-05T04:06:06.709Z,0
2023-03-05T04:07:06.367Z,0
2023-03-05T04:08:07.861Z,0
2023-03-05T04:09:07.526Z,0
2023-03-05T04:10:09.105Z,0
2023-03-05T04:11:09.706Z,0
2023-03-05T04:12:10.216Z,0
2023-03-05T04:13:09.684Z,0
2023-03-05T04:14:10.932Z,0
2023-03-05T04:15:10.573Z,0
2023-03-05T04:16:12.122Z,0
2023-03-05T04:17:12.355Z,0
2023-03-05T04:18:12.311Z,0
2023-03-05T04:19:12.249Z,0
2023-03-05T04:20:13.209Z,0
2023-03-05T04:21:14.193Z,0
2023-03-05T04:22:15.407Z,0
2023-03-05T04:23:15.702Z,0
2023-03-05T04:24:15.919Z,0
2023-03-05T04:25:15.857Z,0
2023-03-05T04:26:17.443Z,0
2023-03-05T04:27:17.649Z,0
2023-03-05T04:28:18.041Z,0
2023-03-05T04:29:18.387Z,0
2023-03-05T04:30:18.733Z,0
2023-03-05T04:31:20.097Z,0
2023-03-05T04:32:20.359Z,0
2023-03-05T04:33:20.445Z,0
2023-03-05T04:34:21.641Z,0
2023-03-05T04:35:22.265Z,0
2023-03-05T04:36:22.494Z,0
2023-03-05T04:37:22.722Z,0
2023-03-05T04:38:23.368Z,0
2023-03-05T04:39:24.870Z,0
2023-03-05T04:40:25.121Z,0
2023-03-05T04:41:25.728Z,0
2023-03-05T04:42:25.355Z,0
2023-03-05T04:43:25.809Z,0
2023-03-05T04:44:27.028Z,0
2023-03-05T04:45:27.245Z,0
2023-03-05T04:46:28.033Z,0
2023-03-05T04:47:27.707Z,0
2023-03-05T04:48:28.374Z,0
2023-03-05T04:49:29.328Z,0
2023-03-05T04:50:29.273Z,0
2023-03-05T04:51:30.209Z,0
2023-03-05T04:52:30.470Z,0
2023-03-05T04:53:30.849Z,0
2023-03-05T04:54:31.792Z,0
2023-03-05T04:55:32.013Z,0
2023-03-05T04:56:33.310Z,0
2023-03-05T04:57:34.851Z,0
2023-03-05T04:58:33.492Z,0
2023-03-05T04:59:34.220Z,0
2023-03-05T05:00:35.435Z,0
2023-03-05T05:01:36.089Z,0
2023-03-05T05:02:36.753Z,0
2023-03-05T05:03:36.580Z,0
2023-03-05T05:04:37.551Z,0
2023-03-05T05:05:37.456Z,0
2023-03-05T05:06:38.378Z,0
2023-03-05T05:07:38.732Z,0
2023-03-05T05:08:40.397Z,0
2023-03-05T05:09:41.894Z,0
2023-03-05T05:10:42.468Z,0
2023-03-05T05:11:43.052Z,0
2023-03-05T05:12:43.541Z,0
2023-03-05T05:13:43.896Z,0
2023-03-05T05:14:43.809Z,0
2023-03-05T05:15:45.028Z,0
2023-03-05T05:16:45.191Z,0
2023-03-05T05:17:46.131Z,0
2023-03-05T05:18:46.338Z,0
2023-03-05T05:19:46.618Z,0
2023-03-05T05:20:47.544Z,0
2023-03-05T05:21:48.045Z,0
2023-03-05T05:22:47.672Z,0
2023-03-05T05:23:48.711Z,0
2023-03-05T05:24:49.217Z,0
2023-03-05T05:25:49.156Z,0
2023-03-05T05:26:50.734Z,0
2023-03-05T05:27:50.940Z,0
2023-03-05T05:28:50.858Z,0
2023-03-05T05:29:51.492Z,0
2023-03-05T05:30:52.114Z,0
2023-03-05T05:31:53.694Z,0
2023-03-05T05:32:54.113Z,0
2023-03-05T05:33:55.505Z,0
2023-03-05T05:34:54.148Z,0
2023-03-05T05:35:55.245Z,0
2023-03-05T05:36:54.874Z,0
2023-03-05T05:37:56.152Z,0
2023-03-05T05:38:56.566Z,0
2023-03-05T05:39:57.777Z,0
2023-03-05T05:40:57.737Z,0
2023-03-05T05:41:58.022Z,0
2023-03-05T05:42:57.957Z,0
2023-03-05T05:43:58.983Z,0
2023-03-05T05:44:59.138Z,0
2023-03-05T05:46:00.638Z,0
2023-03-05T05:47:00.625Z,0
2023-03-05T05:48:01.561Z,0
2023-03-05T05:49:02.771Z,0
2023-03-05T05:50:03.749Z,0
2023-03-05T05:51:04.099Z,0
2023-03-05T05:52:05.024Z,0
2023-03-05T05:53:05.964Z,0
2023-03-05T05:54:06.289Z,0
2023-03-05T05:55:06.524Z,0
2023-03-05T05:56:06.448Z,0
2023-03-05T05:57:08.029Z,0
2023-03-05T05:58:08.229Z,0
2023-03-05T05:59:08.435Z,0
2023-03-05T06:00:08.658Z,0
2023-03-05T06:01:08.900Z,0
2023-03-05T06:02:10.110Z,0
2023-03-05T06:03:10.621Z,0
2023-03-05T06:04:10.971Z,0
2023-03-05T06:05:14.731Z,0
2023-03-05T06:06:12.413Z,0
2023-03-05T06:07:13.351Z,0
2023-03-05T06:08:14.872Z,0
2023-03-05T06:09:14.805Z,0
2023-03-05T06:10:15.489Z,0
2023-03-05T06:11:18.855Z,0
2023-03-05T06:12:17.827Z,0
2023-03-05T06:13:18.048Z,0
2023-03-05T06:14:18.850Z,0
2023-03-05T06:15:19.226Z,0
2023-03-05T06:16:20.363Z,0
2023-03-05T06:17:39.061Z,0
2023-03-05T06:18:21.994Z,0
2023-03-05T06:19:22.952Z,0
2023-03-05T06:20:24.161Z,5.63
2023-03-05T06:21:24.225Z,5.63
2023-03-05T06:22:24.874Z,5.63
2023-03-05T06:23:25.516Z,5.63
2023-03-05T06:24:26.354Z,5.63
2023-03-05T06:25:27.268Z,5.63
2023-03-05T06:26:27.931Z,5.63
2023-03-05T06:27:29.520Z,5.63
2023-03-05T06:28:29.459Z,5.63
2023-03-05T06:29:30.705Z,5.63
2023-03-05T06:30:30.911Z,5.63
2023-03-05T06:31:31.517Z,5.63
2023-03-05T06:32:32.395Z,5.63
2023-03-05T06:33:32.050Z,5.63
2023-03-05T06:34:32.491Z,5.63
2023-03-05T06:35:33.589Z,5.63
2023-03-05T06:36:33.549Z,5.63
2023-03-05T06:37:33.483Z,5.63
2023-03-05T06:38:34.442Z,11.25
2023-03-05T06:39:35.166Z,11.25
2023-03-05T06:40:36.087Z,11.25
2023-03-05T06:41:36.447Z,11.25
2023-03-05T06:42:37.486Z,11.25
2023-03-05T06:43:37.701Z,11.25
2023-03-05T06:44:37.745Z,11.25
2023-03-05T06:45:38.833Z,11.25
2023-03-05T06:46:38.878Z,11.25
2023-03-05T06:47:40.094Z,11.25
2023-03-05T06:48:40.581Z,11.25
2023-03-05T06:49:40.507Z,11.25
2023-03-05T06:50:41.732Z,11.25
2023-03-05T06:51:41.925Z,11.25
2023-03-05T06:52:42.123Z,11.25
2023-03-05T06:53:43.048Z,11.25
2023-03-05T06:54:42.546Z,11.25
2023-03-05T06:55:44.476Z,16.88
2023-03-05T06:56:44.725Z,16.88
2023-03-05T06:57:46.034Z,16.88
2023-03-05T06:58:45.950Z,16.88
2023-03-05T06:59:47.150Z,22.5
2023-03-05T07:00:47.552Z,22.5
2023-03-05T07:01:47.616Z,22.5
2023-03-05T07:02:48.148Z,28.13
2023-03-05T07:03:48.445Z,28.13
2023-03-05T07:04:49.508Z,33.75
2023-03-05T07:05:50.530Z,33.75
2023-03-05T07:06:50.720Z,33.75
2023-03-05T07:07:51.959Z,33.75
2023-03-05T07:08:51.639Z,39.38
2023-03-05T07:09:52.287Z,39.38
2023-03-05T07:10:52.917Z,39.38
2023-03-05T07:11:54.192Z,39.38
2023-03-05T07:12:55.196Z,39.38
2023-03-05T07:13:55.677Z,45
2023-03-05T07:14:55.521Z,45
2023-03-05T07:15:56.928Z,45
2023-03-05T07:16:56.897Z,45
2023-03-05T07:17:58.117Z,45
2023-03-05T07:18:58.077Z,45
2023-03-05T07:19:59.291Z,39.38
2023-03-05T07:20:59.498Z,39.38
2023-03-05T07:21:59.729Z,33.75
2023-03-05T07:23:00.754Z,33.75
2023-03-05T07:24:00.427Z,28.13
2023-03-05T07:25:00.974Z,28.13
2023-03-05T07:26:01.618Z,28.13
2023-03-05T07:27:05.526Z,28.13
2023-03-05T07:28:02.848Z,28.13
2023-03-05T07:29:02.764Z,33.75
2023-03-05T07:30:03.690Z,33.75
2023-03-05T07:31:04.636Z,33.75
2023-03-05T07:32:05.732Z,33.75
2023-03-05T07:33:05.415Z,33.75
2023-03-05T07:34:06.092Z,33.75
2023-03-05T07:35:07.163Z,39.38
2023-03-05T07:36:07.878Z,39.38
2023-03-05T07:37:09.375Z,45
2023-03-05T07:38:09.330Z,45
2023-03-05T07:39:10.357Z,45
2023-03-05T07:40:11.284Z,45
2023-03-05T07:41:11.665Z,39.38
2023-03-05T07:42:13.213Z,33.75
2023-03-05T07:43:13.826Z,33.75
2023-03-05T07:44:14.061Z,33.75
2023-03-05T07:45:15.385Z,39.38
2023-03-05T07:46:15.858Z,45
2023-03-05T07:47:16.345Z,45
2023-03-05T07:48:16.573Z,45
2023-03-05T07:49:16.806Z,45
2023-03-05T07:50:17.044Z,45
2023-03-05T07:51:17.263Z,45
2023-03-05T07:52:17.766Z,45
2023-03-05T07:53:17.726Z,45
2023-03-05T07:54:18.680Z,50.63
2023-03-05T07:55:19.297Z,50.63
2023-03-05T07:56:19.204Z,56.25
2023-03-05T07:57:20.170Z,56.25
2023-03-05T07:58:21.767Z,56.25
2023-03-05T07:59:22.001Z,56.25
2023-03-05T08:00:22.265Z,56.25
2023-03-05T08:01:24.516Z,56.25
2023-03-05T08:02:23.969Z,56.25
2023-03-05T08:03:23.910Z,61.88
2023-03-05T08:04:25.438Z,61.88
2023-03-05T08:05:25.447Z,61.88
2023-03-05T08:06:25.381Z,61.88
2023-03-05T08:07:26.937Z,67.5
2023-03-05T08:08:27.045Z,73.13
2023-03-05T08:09:26.412Z,78.75
2023-03-05T08:10:27.651Z,84.38
2023-03-05T08:11:27.869Z,90
2023-03-05T08:12:28.143Z,90
2023-03-05T08:13:28.737Z,90
2023-03-05T08:14:28.782Z,90
2023-03-05T08:15:29.149Z,84.38
2023-03-05T08:16:29.542Z,84.38
2023-03-05T08:17:29.761Z,84.38
2023-03-05T08:18:30.271Z,101.25
2023-03-05T08:19:30.190Z,112.5
2023-03-05T08:20:31.521Z,123.75
2023-03-05T08:21:31.800Z,135
2023-03-05T08:22:32.742Z,129.38
2023-03-05T08:23:32.653Z,129.38
2023-03-05T08:24:33.859Z,118.13
2023-03-05T08:25:34.153Z,118.13
2023-03-05T08:26:34.091Z,118.13
2023-03-05T08:27:35.048Z,112.5
2023-03-05T08:28:38.810Z,106.88
2023-03-05T08:29:36.720Z,106.88
2023-03-05T08:30:37.371Z,112.5
2023-03-05T08:31:38.690Z,112.5
2023-03-05T08:32:39.459Z,118.13
2023-03-05T08:33:44.005Z,123.75
2023-03-05T08:34:41.237Z,129.38
2023-03-05T08:35:42.184Z,135
2023-03-05T08:36:42.444Z,129.38
2023-03-05T08:37:42.096Z,135
2023-03-05T08:38:43.132Z,135
2023-03-05T08:39:43.783Z,140.63
2023-03-05T08:40:45.015Z,140.63
2023-03-05T08:41:45.240Z,140.63
2023-03-05T08:42:45.462Z,146.25
2023-03-05T08:43:46.767Z,146.25
2023-03-05T08:44:46.424Z,146.25
2023-03-05T08:45:47.171Z,146.25
2023-03-05T08:46:48.596Z,140.63
2023-03-05T08:47:48.839Z,140.63
2023-03-05T08:48:49.794Z,135
2023-03-05T08:49:50.301Z,135
2023-03-05T08:50:50.264Z,135
2023-03-05T08:51:50.907Z,135
2023-03-05T08:52:52.415Z,135
2023-03-05T08:53:52.351Z,135
2023-03-05T08:54:52.850Z,135
2023-03-05T08:55:55.338Z,135
2023-03-05T08:56:54.262Z,135
2023-03-05T08:57:54.796Z,129.38
2023-03-05T08:58:55.152Z,129.38
2023-03-05T08:59:55.091Z,123.75
2023-03-05T09:00:56.616Z,123.75
2023-03-05T09:01:56.979Z,123.75
2023-03-05T09:02:57.769Z,123.75
2023-03-05T09:03:57.744Z,129.38
2023-03-05T09:04:58.707Z,129.38
2023-03-05T09:05:59.176Z,129.38
2023-03-05T09:06:59.836Z,129.38
2023-03-05T09:08:00.764Z,123.75
2023-03-05T09:09:01.431Z,118.13
2023-03-05T09:10:02.653Z,118.13
2023-03-05T09:11:02.879Z,123.75
2023-03-05T09:12:03.395Z,129.38
2023-03-05T09:13:03.435Z,129.38
2023-03-05T09:14:04.760Z,129.38
2023-03-05T09:15:04.972Z,129.38
2023-03-05T09:16:05.596Z,123.75
2023-03-05T09:17:06.111Z,123.75
2023-03-05T09:18:06.046Z,123.75
2023-03-05T09:19:06.413Z,118.13
2023-03-05T09:20:07.353Z,118.13
2023-03-05T09:21:08.556Z,118.13
2023-03-05T09:22:12.567Z,123.75
2023-03-05T09:23:09.766Z,129.38
2023-03-05T09:24:09.733Z,129.38
2023-03-05T09:25:10.400Z,129.38
2023-03-05T09:26:11.418Z,140.63
2023-03-05T09:27:12.643Z,151.88
2023-03-05T09:28:13.888Z,157.5
2023-03-05T09:29:14.233Z,168.75
2023-03-05T09:30:14.161Z,163.13
2023-03-05T09:31:15.407Z,163.13
2023-03-05T09:32:15.971Z,163.13
2023-03-05T09:33:15.973Z,168.75
2023-03-05T09:34:16.620Z,174.38
2023-03-05T09:35:17.569Z,191.25
2023-03-05T09:36:17.806Z,196.88
2023-03-05T09:37:18.732Z,202.5
2023-03-05T09:38:20.241Z,196.88
2023-03-05T09:39:20.191Z,191.25
2023-03-05T09:40:21.465Z,174.38
2023-03-05T09:41:21.677Z,157.5
2023-03-05T09:42:21.601Z,151.88
2023-03-05T09:43:22.304Z,140.63
2023-03-05T09:44:23.901Z,140.63
2023-03-05T09:45:23.533Z,140.63
2023-03-05T09:46:25.024Z,146.25
2023-03-05T09:47:25.951Z,157.5
2023-03-05T09:48:26.184Z,163.13
2023-03-05T09:49:25.830Z,168.75
2023-03-05T09:50:27.125Z,163.13
2023-03-05T09:51:27.349Z,163.13
2023-03-05T09:52:28.004Z,168.75
2023-03-05T09:53:28.382Z,168.75
2023-03-05T09:54:29.422Z,174.38
2023-03-05T09:55:30.083Z,174.38
2023-03-05T09:56:31.706Z,174.38
2023-03-05T09:57:31.664Z,180
2023-03-05T09:58:32.916Z,180
2023-03-05T09:59:33.216Z,174.38
2023-03-05T10:00:33.130Z,174.38
2023-03-05T10:01:34.116Z,168.75
2023-03-05T10:02:34.330Z,168.75
2023-03-05T10:03:35.183Z,168.75
2023-03-05T10:04:35.628Z,163.13
2023-03-05T10:05:35.838Z,157.5
2023-03-05T10:06:36.842Z,151.88
2023-03-05T10:07:37.103Z,146.25
2023-03-05T10:08:38.326Z,146.25
2023-03-05T10:09:38.253Z,146.25
2023-03-05T10:10:39.176Z,140.63
2023-03-05T10:11:40.112Z,135
2023-03-05T10:12:40.046Z,135
2023-03-05T10:13:41.099Z,129.38
2023-03-05T10:14:42.716Z,123.75
2023-03-05T10:15:43.622Z,123.75
2023-03-05T10:16:43.608Z,118.13
2023-03-05T10:17:43.285Z,118.13
2023-03-05T10:18:44.200Z,118.13
2023-03-05T10:19:45.402Z,118.13
2023-03-05T10:20:46.365Z,118.13
2023-03-05T10:21:46.317Z,112.5
2023-03-05T10:22:47.827Z,118.13
2023-03-05T10:23:48.040Z,123.75
2023-03-05T10:24:48.546Z,129.38
2023-03-05T10:25:48.185Z,151.88
2023-03-05T10:26:49.538Z,163.13
2023-03-05T10:27:49.294Z,180
2023-03-05T10:28:50.598Z,180
2023-03-05T10:29:51.203Z,202.5
2023-03-05T10:30:51.427Z,185.63
2023-03-05T10:31:52.068Z,168.75
2023-03-05T10:32:52.713Z,157.5
2023-03-05T10:33:52.684Z,151.88
2023-03-05T10:34:53.619Z,157.5
2023-03-05T10:35:54.459Z,151.88
2023-03-05T10:36:55.801Z,146.25
2023-03-05T10:37:55.063Z,157.5
2023-03-05T10:38:55.279Z,157.5
2023-03-05T10:39:54.926Z,151.88
2023-03-05T10:40:55.296Z,151.88
2023-03-05T10:41:56.260Z,151.88
2023-03-05T10:42:56.908Z,146.25
2023-03-05T10:43:57.910Z,151.88
2023-03-05T10:44:59.219Z,157.5
2023-03-05T10:45:59.837Z,157.5
2023-03-05T10:47:01.426Z,157.5
2023-03-05T10:48:00.123Z,146.25
2023-03-05T10:49:00.948Z,146.25
2023-03-05T10:50:02.155Z,140.63
2023-03-05T10:51:01.794Z,129.38
2023-03-05T10:52:02.748Z,129.38
2023-03-05T10:53:02.732Z,129.38
2023-03-05T10:54:03.387Z,129.38
2023-03-05T10:55:04.054Z,129.38
2023-03-05T10:56:04.980Z,129.38
2023-03-05T10:57:06.077Z,129.38
2023-03-05T10:58:07.288Z,129.38
2023-03-05T10:59:07.533Z,129.38
2023-03-05T11:00:07.829Z,129.38
2023-03-05T11:01:08.121Z,135
2023-03-05T11:02:08.521Z,135
2023-03-05T11:03:08.676Z,135
2023-03-05T11:04:09.690Z,135
2023-03-05T11:05:10.945Z,129.38
2023-03-05T11:06:11.475Z,129.38
2023-03-05T11:07:12.071Z,123.75
2023-03-05T11:08:12.288Z,118.13
2023-03-05T11:09:12.700Z,112.5
2023-03-05T11:10:13.628Z,106.88
2023-03-05T11:11:15.308Z,101.25
2023-03-05T11:12:14.231Z,95.63
2023-03-05T11:13:15.142Z,95.63
2023-03-05T11:14:15.867Z,95.63
2023-03-05T11:15:17.476Z,90
2023-03-05T11:16:19.948Z,84.38
2023-03-05T11:17:18.253Z,78.75
2023-03-05T11:18:17.909Z,78.75
2023-03-05T11:19:18.492Z,78.75
2023-03-05T11:20:19.454Z,78.75
2023-03-05T11:21:20.385Z,78.75
2023-03-05T11:22:20.905Z,78.75
2023-03-05T11:23:20.924Z,78.75
2023-03-05T11:24:22.152Z,73.13
2023-03-05T11:25:22.804Z,73.13
2023-03-05T11:26:23.476Z,73.13
2023-03-05T11:27:24.209Z,73.13
2023-03-05T11:28:42.651Z,73.13
2023-03-05T11:29:26.279Z,73.13
2023-03-05T11:30:26.879Z,73.13
2023-03-05T11:31:27.542Z,73.13
2023-03-05T11:32:27.764Z,73.13
2023-03-05T11:33:27.977Z,73.13
2023-03-05T11:34:28.936Z,73.13
2023-03-05T11:35:30.092Z,73.13
2023-03-05T11:36:29.730Z,73.13
2023-03-05T11:37:31.076Z,78.75
2023-03-05T11:38:33.536Z,78.75
2023-03-05T11:39:31.442Z,84.38
2023-03-05T11:40:32.672Z,84.38
2023-03-05T11:41:32.634Z,90
2023-03-05T11:42:33.580Z,78.75
2023-03-05T11:43:33.832Z,78.75
2023-03-05T11:44:34.381Z,78.75
2023-03-05T11:45:34.692Z,73.13
2023-03-05T11:46:35.283Z,73.13
2023-03-05T11:47:35.081Z,73.13
2023-03-05T11:48:36.312Z,73.13
2023-03-05T11:49:40.609Z,73.13
2023-03-05T11:50:38.132Z,73.13
2023-03-05T11:51:38.038Z,73.13
2023-03-05T11:52:38.958Z,73.13
2023-03-05T11:53:39.174Z,73.13
2023-03-05T11:54:39.434Z,73.13
2023-03-05T11:55:39.112Z,73.13
2023-03-05T11:56:40.216Z,73.13
2023-03-05T11:57:40.872Z,73.13
2023-03-05T11:58:41.085Z,73.13
2023-03-05T11:59:41.074Z,78.75
2023-03-05T12:00:41.437Z,78.75
2023-03-05T12:01:41.948Z,78.75
2023-03-05T12:02:42.086Z,78.75
2023-03-05T12:03:42.130Z,84.38
2023-03-05T12:04:42.354Z,84.38
2023-03-05T12:05:42.557Z,84.38
2023-03-05T12:06:42.645Z,84.38
2023-03-05T12:07:44.646Z,84.38
2023-03-05T12:08:43.837Z,84.38
2023-03-05T12:09:45.644Z,84.38
2023-03-05T12:10:45.365Z,84.38
2023-03-05T12:11:45.046Z,84.38
2023-03-05T12:12:46.377Z,90
2023-03-05T12:13:48.643Z,90
2023-03-05T12:14:48.282Z,101.25
2023-03-05T12:15:49.213Z,106.88
2023-03-05T12:16:49.253Z,112.5
2023-03-05T12:17:49.807Z,112.5
2023-03-05T12:18:50.743Z,118.13
2023-03-05T12:19:50.496Z,118.13
2023-03-05T12:20:52.045Z,123.75
2023-03-05T12:21:52.384Z,123.75
2023-03-05T12:22:52.707Z,123.75
2023-03-05T12:23:53.203Z,123.75
2023-03-05T12:24:52.912Z,123.75
2023-03-05T12:25:54.867Z,123.75
2023-03-05T12:26:54.625Z,123.75
2023-03-05T12:27:56.022Z,123.75
2023-03-05T12:28:55.959Z,123.75
2023-03-05T12:29:56.625Z,129.38
2023-03-05T12:30:58.023Z,123.75
2023-03-05T12:31:58.614Z,112.5
2023-03-05T12:32:59.668Z,101.25
2023-03-05T12:34:00.388Z,95.63
2023-03-05T12:35:01.186Z,90
2023-03-05T12:36:01.851Z,84.38
2023-03-05T12:37:02.075Z,78.75
2023-03-05T12:38:04.406Z,73.13
2023-03-05T12:39:03.390Z,73.13
2023-03-05T12:40:03.728Z,73.13
2023-03-05T12:41:03.365Z,78.75
2023-03-05T12:42:04.041Z,78.75
2023-03-05T12:43:05.292Z,78.75
2023-03-05T12:44:04.646Z,84.38
2023-03-05T12:45:06.983Z,84.38
2023-03-05T12:46:08.142Z,84.38
2023-03-05T12:47:07.687Z,84.38
2023-03-05T12:48:08.443Z,84.38
2023-03-05T12:49:08.770Z,84.38
2023-03-05T12:50:09.135Z,84.38
2023-03-05T12:51:10.052Z,84.38
2023-03-05T12:52:11.281Z,84.38
2023-03-05T12:53:12.694Z,84.38
2023-03-05T12:54:12.353Z,84.38
2023-03-05T12:55:13.878Z,78.75
2023-03-05T12:56:14.112Z,78.75
2023-03-05T12:57:13.769Z,78.75
2023-03-05T12:58:15.147Z,84.38
2023-03-05T12:59:15.707Z,84.38
2023-03-05T13:00:16.706Z,84.38
2023-03-05T13:01:17.649Z,84.38
2023-03-05T13:02:19.002Z,84.38
2023-03-05T13:03:19.029Z,84.38
2023-03-05T13:04:19.405Z,84.38
2023-03-05T13:05:19.320Z,84.38
2023-03-05T13:06:20.550Z,84.38
2023-03-05T13:07:20.193Z,84.38
2023-03-05T13:08:21.841Z,84.38
2023-03-05T13:09:20.524Z,78.75
2023-03-05T13:10:21.991Z,78.75
2023-03-05T13:11:21.646Z,78.75
2023-03-05T13:12:23.370Z,73.13
2023-03-05T13:13:24.725Z,73.13
2023-03-05T13:14:24.128Z,73.13
2023-03-05T13:15:24.134Z,73.13
2023-03-05T13:16:25.026Z,67.5
2023-03-05T13:17:25.270Z,67.5
2023-03-05T13:18:25.624Z,67.5
2023-03-05T13:19:25.826Z,67.5
2023-03-05T13:20:26.464Z,61.88
2023-03-05T13:21:27.666Z,61.88
2023-03-05T13:22:27.591Z,61.88
2023-03-05T13:23:28.843Z,61.88
2023-03-05T13:24:31.302Z,61.88
2023-03-05T13:25:29.817Z,61.88
2023-03-05T13:26:30.015Z,61.88
2023-03-05T13:27:30.243Z,61.88
2023-03-05T13:28:30.691Z,61.88
2023-03-05T13:29:31.967Z,61.88
2023-03-05T13:30:33.694Z,61.88
2023-03-05T13:31:33.185Z,61.88
2023-03-05T13:32:33.714Z,61.88
2023-03-05T13:33:33.759Z,61.88
2023-03-05T13:34:49.980Z,61.88
2023-03-05T13:35:34.140Z,61.88
2023-03-05T13:36:34.793Z,61.88
2023-03-05T13:37:35.732Z,56.25
2023-03-05T13:38:36.241Z,56.25
2023-03-05T13:39:36.448Z,56.25
2023-03-05T13:40:36.418Z,56.25
2023-03-05T13:41:37.061Z,56.25
2023-03-05T13:42:38.281Z,56.25
2023-03-05T13:43:38.209Z,61.88
2023-03-05T13:44:39.147Z,61.88
2023-03-05T13:45:41.138Z,61.88
2023-03-05T13:46:42.003Z,61.88
2023-03-05T13:47:42.603Z,56.25
2023-03-05T13:48:42.939Z,56.25
2023-03-05T13:49:43.909Z,56.25